If you wish to contribute or participate in the discussions about articles you are invited to join SKYbrary as a registered user

 Actions

Avalon Airport

From SKYbrary Wiki

YMAV
Airport
ICAO: YMAV – IATA: AVV
Summary
Name Avalon Airport
Region Asia and Pacific
Territory Australia AU.gif
Location , Victoria
Serving Avalon
Elevation 10.668 m
35 ft
35 ft10.668 m
Type medium airport
Coordinates 38° 2' 21.98" S, 144° 28' 9.98" E
Runways
Designator Length Width Surface ROPS
18/36 3048 m10,000 ft
45 m147.638 ft
ASP yes/yes


METAR
Observation YMAV 170330Z AUTO 16009KT 9999 // NCD 13/03 Q1028 RF00.0/000.0
Station Avalon, Avalon Airport
Date/Time 17 September 2019 03:30:00
Wind direction 160°
Wind speed 09 kts
Lowest cloud amount no clouds detected
Temperature 13°C
Dew point 3°C
Humidity 50%
QNH 1028 hPa
Weather condition n/a